sensor_id;sensor_type;location;lat;lon;timestamp;P1;durP1;ratioP1;P2;durP2;ratioP2
29214;SDS011;16252;49.816;7.964;2023-02-22T00:01:50;7.80;;;4.28;;
29214;SDS011;16252;49.816;7.964;2023-02-22T00:04:34;7.80;;;4.65;;
29214;SDS011;16252;49.816;7.964;2023-02-22T00:07:00;11.05;;;4.40;;
29214;SDS011;16252;49.816;7.964;2023-02-22T00:09:26;5.97;;;3.88;;
29214;SDS011;16252;49.816;7.964;2023-02-22T00:11:51;6.97;;;3.85;;
29214;SDS011;16252;49.816;7.964;2023-02-22T00:14:16;6.93;;;4.30;;
29214;SDS011;16252;49.816;7.964;2023-02-22T00:16:44;6.05;;;3.67;;
29214;SDS011;16252;49.816;7.964;2023-02-22T00:19:09;6.35;;;4.40;;
29214;SDS011;16252;49.816;7.964;2023-02-22T00:21:34;7.40;;;4.20;;
29214;SDS011;16252;49.816;7.964;2023-02-22T00:24:01;10.90;;;4.82;;
29214;SDS011;16252;49.816;7.964;2023-02-22T00:26:46;9.15;;;4.70;;
29214;SDS011;16252;49.816;7.964;2023-02-22T00:29:12;8.77;;;5.18;;
29214;SDS011;16252;49.816;7.964;2023-02-22T00:31:37;8.35;;;5.25;;
29214;SDS011;16252;49.816;7.964;2023-02-22T00:34:03;9.20;;;5.80;;
29214;SDS011;16252;49.816;7.964;2023-02-22T00:36:28;10.70;;;5.38;;
29214;SDS011;16252;49.816;7.964;2023-02-22T00:38:53;9.90;;;5.65;;
29214;SDS011;16252;49.816;7.964;2023-02-22T00:41:19;9.68;;;4.97;;
29214;SDS011;16252;49.816;7.964;2023-02-22T00:43:44;9.38;;;5.18;;
29214;SDS011;16252;49.816;7.964;2023-02-22T00:46:12;8.63;;;4.93;;
29214;SDS011;16252;49.816;7.964;2023-02-22T00:48:37;7.35;;;4.63;;
29214;SDS011;16252;49.816;7.964;2023-02-22T00:51:02;8.48;;;4.28;;
29214;SDS011;16252;49.816;7.964;2023-02-22T00:53:28;7.63;;;4.78;;
29214;SDS011;16252;49.816;7.964;2023-02-22T00:55:53;8.75;;;5.18;;
29214;SDS011;16252;49.816;7.964;2023-02-22T00:58:19;6.22;;;4.20;;
29214;SDS011;16252;49.816;7.964;2023-02-22T01:00:45;5.82;;;4.03;;
29214;SDS011;16252;49.816;7.964;2023-02-22T01:03:11;7.65;;;4.68;;
29214;SDS011;16252;49.816;7.964;2023-02-22T01:05:38;7.45;;;4.30;;
29214;SDS011;16252;49.816;7.964;2023-02-22T01:08:05;7.55;;;4.18;;
29214;SDS011;16252;49.816;7.964;2023-02-22T01:10:31;6.35;;;4.07;;
29214;SDS011;16252;49.816;7.964;2023-02-22T01:12:57;6.68;;;3.88;;
29214;SDS011;16252;49.816;7.964;2023-02-22T01:15:24;4.93;;;3.55;;
29214;SDS011;16252;49.816;7.964;2023-02-22T01:17:54;5.93;;;3.67;;
29214;SDS011;16252;49.816;7.964;2023-02-22T01:20:22;5.20;;;3.85;;
29214;SDS011;16252;49.816;7.964;2023-02-22T01:22:49;6.72;;;3.53;;
29214;SDS011;16252;49.816;7.964;2023-02-22T01:25:18;7.13;;;3.85;;
29214;SDS011;16252;49.816;7.964;2023-02-22T01:27:46;6.28;;;4.35;;
29214;SDS011;16252;49.816;7.964;2023-02-22T01:30:14;6.75;;;3.97;;
29214;SDS011;16252;49.816;7.964;2023-02-22T01:32:41;6.63;;;3.70;;
29214;SDS011;16252;49.816;7.964;2023-02-22T01:35:08;6.00;;;3.75;;
29214;SDS011;16252;49.816;7.964;2023-02-22T01:37:37;5.22;;;3.92;;
29214;SDS011;16252;49.816;7.964;2023-02-22T01:40:03;9.27;;;4.68;;
29214;SDS011;16252;49.816;7.964;2023-02-22T01:42:31;8.13;;;4.18;;
29214;SDS011;16252;49.816;7.964;2023-02-22T01:47:53;5.95;;;3.78;;
29214;SDS011;16252;49.816;7.964;2023-02-22T01:50:22;6.43;;;4.00;;
29214;SDS011;16252;49.816;7.964;2023-02-22T01:52:47;8.40;;;4.07;;
29214;SDS011;16252;49.816;7.964;2023-02-22T01:55:13;4.95;;;3.70;;
29214;SDS011;16252;49.816;7.964;2023-02-22T01:57:40;7.05;;;3.95;;
29214;SDS011;16252;49.816;7.964;2023-02-22T02:00:07;5.28;;;3.60;;
29214;SDS011;16252;49.816;7.964;2023-02-22T02:02:35;7.40;;;3.97;;
29214;SDS011;16252;49.816;7.964;2023-02-22T02:05:04;6.63;;;3.78;;
29214;SDS011;16252;49.816;7.964;2023-02-22T02:07:32;5.68;;;3.83;;
29214;SDS011;16252;49.816;7.964;2023-02-22T02:10:00;6.32;;;3.97;;
29214;SDS011;16252;49.816;7.964;2023-02-22T02:12:30;5.10;;;3.35;;
29214;SDS011;16252;49.816;7.964;2023-02-22T02:15:21;5.63;;;3.33;;
29214;SDS011;16252;49.816;7.964;2023-02-22T02:17:47;3.70;;;3.13;;
29214;SDS011;16252;49.816;7.964;2023-02-22T02:20:26;5.43;;;3.70;;
29214;SDS011;16252;49.816;7.964;2023-02-22T02:28:29;5.43;;;3.72;;
29214;SDS011;16252;49.816;7.964;2023-02-22T02:39:28;7.38;;;3.33;;
29214;SDS011;16252;49.816;7.964;2023-02-22T02:41:55;4.05;;;3.15;;
29214;SDS011;16252;49.816;7.964;2023-02-22T02:44:28;5.32;;;3.63;;
29214;SDS011;16252;49.816;7.964;2023-02-22T02:47:00;5.43;;;2.85;;
29214;SDS011;16252;49.816;7.964;2023-02-22T02:49:29;4.32;;;3.15;;
29214;SDS011;16252;49.816;7.964;2023-02-22T02:51:59;4.93;;;3.53;;
29214;SDS011;16252;49.816;7.964;2023-02-22T02:54:27;7.03;;;3.30;;
29214;SDS011;16252;49.816;7.964;2023-02-22T02:56:53;7.38;;;3.75;;
29214;SDS011;16252;49.816;7.964;2023-02-22T02:59:25;4.55;;;3.03;;
29214;SDS011;16252;49.816;7.964;2023-02-22T03:02:10;4.88;;;3.10;;
29214;SDS011;16252;49.816;7.964;2023-02-22T03:15:36;4.20;;;2.90;;
29214;SDS011;16252;49.816;7.964;2023-02-22T03:18:17;5.03;;;2.85;;
29214;SDS011;16252;49.816;7.964;2023-02-22T03:20:51;4.05;;;2.88;;
29214;SDS011;16252;49.816;7.964;2023-02-22T03:23:24;3.80;;;2.80;;
29214;SDS011;16252;49.816;7.964;2023-02-22T03:25:57;4.75;;;3.40;;
29214;SDS011;16252;49.816;7.964;2023-02-22T03:28:27;4.32;;;3.20;;
29214;SDS011;16252;49.816;7.964;2023-02-22T03:31:01;3.92;;;2.88;;
29214;SDS011;16252;49.816;7.964;2023-02-22T03:33:43;5.65;;;3.42;;
29214;SDS011;16252;49.816;7.964;2023-02-22T03:36:14;4.30;;;3.08;;
29214;SDS011;16252;49.816;7.964;2023-02-22T03:38:43;6.13;;;3.30;;
29214;SDS011;16252;49.816;7.964;2023-02-22T03:41:10;5.80;;;3.40;;
29214;SDS011;16252;49.816;7.964;2023-02-22T03:43:40;5.07;;;3.63;;
29214;SDS011;16252;49.816;7.964;2023-02-22T03:46:09;5.07;;;3.28;;
29214;SDS011;16252;49.816;7.964;2023-02-22T03:48:42;4.65;;;3.05;;
29214;SDS011;16252;49.816;7.964;2023-02-22T03:51:12;5.95;;;3.58;;
29214;SDS011;16252;49.816;7.964;2023-02-22T03:53:41;5.25;;;3.30;;
29214;SDS011;16252;49.816;7.964;2023-02-22T03:56:08;4.20;;;2.95;;
29214;SDS011;16252;49.816;7.964;2023-02-22T03:58:37;4.43;;;3.10;;
29214;SDS011;16252;49.816;7.964;2023-02-22T04:01:07;3.92;;;2.70;;
29214;SDS011;16252;49.816;7.964;2023-02-22T04:03:33;4.95;;;3.22;;
29214;SDS011;16252;49.816;7.964;2023-02-22T04:05:58;3.90;;;3.10;;
29214;SDS011;16252;49.816;7.964;2023-02-22T04:08:24;7.07;;;3.70;;
29214;SDS011;16252;49.816;7.964;2023-02-22T04:10:49;5.30;;;3.67;;
29214;SDS011;16252;49.816;7.964;2023-02-22T04:13:14;4.88;;;3.42;;
29214;SDS011;16252;49.816;7.964;2023-02-22T04:15:40;5.53;;;3.63;;
29214;SDS011;16252;49.816;7.964;2023-02-22T04:18:05;5.53;;;3.50;;
29214;SDS011;16252;49.816;7.964;2023-02-22T04:20:30;5.50;;;3.58;;
29214;SDS011;16252;49.816;7.964;2023-02-22T04:22:56;6.65;;;3.17;;
29214;SDS011;16252;49.816;7.964;2023-02-22T04:25:21;4.30;;;2.92;;
29214;SDS011;16252;49.816;7.964;2023-02-22T04:27:48;4.95;;;3.42;;
29214;SDS011;16252;49.816;7.964;2023-02-22T04:30:14;6.78;;;3.70;;
29214;SDS011;16252;49.816;7.964;2023-02-22T04:32:44;5.07;;;3.08;;
29214;SDS011;16252;49.816;7.964;2023-02-22T04:35:09;5.90;;;3.38;;
29214;SDS011;16252;49.816;7.964;2023-02-22T04:37:35;5.40;;;3.25;;
29214;SDS011;16252;49.816;7.964;2023-02-22T04:40:01;6.35;;;3.28;;
29214;SDS011;16252;49.816;7.964;2023-02-22T04:42:27;4.30;;;3.00;;
29214;SDS011;16252;49.816;7.964;2023-02-22T04:44:53;5.95;;;3.58;;
29214;SDS011;16252;49.816;7.964;2023-02-22T04:47:18;4.05;;;3.28;;
29214;SDS011;16252;49.816;7.964;2023-02-22T04:49:44;3.78;;;2.92;;
29214;SDS011;16252;49.816;7.964;2023-02-22T04:52:09;5.53;;;3.40;;
29214;SDS011;16252;49.816;7.964;2023-02-22T04:54:35;5.70;;;3.78;;
29214;SDS011;16252;49.816;7.964;2023-02-22T04:57:00;5.88;;;3.80;;
29214;SDS011;16252;49.816;7.964;2023-02-22T04:59:26;9.52;;;4.07;;
29214;SDS011;16252;49.816;7.964;2023-02-22T05:01:51;5.78;;;3.65;;
29214;SDS011;16252;49.816;7.964;2023-02-22T05:04:17;4.93;;;3.33;;
29214;SDS011;16252;49.816;7.964;2023-02-22T05:06:42;7.13;;;3.38;;
29214;SDS011;16252;49.816;7.964;2023-02-22T05:09:07;6.80;;;3.85;;
29214;SDS011;16252;49.816;7.964;2023-02-22T05:11:33;4.35;;;3.25;;
29214;SDS011;16252;49.816;7.964;2023-02-22T05:13:58;4.95;;;3.60;;
29214;SDS011;16252;49.816;7.964;2023-02-22T05:16:23;6.32;;;3.92;;
29214;SDS011;16252;49.816;7.964;2023-02-22T05:18:49;7.20;;;4.20;;
29214;SDS011;16252;49.816;7.964;2023-02-22T05:21:14;6.45;;;3.80;;
29214;SDS011;16252;49.816;7.964;2023-02-22T05:23:40;4.53;;;3.25;;
29214;SDS011;16252;49.816;7.964;2023-02-22T05:26:05;7.72;;;3.63;;
29214;SDS011;16252;49.816;7.964;2023-02-22T05:28:31;3.65;;;3.25;;
29214;SDS011;16252;49.816;7.964;2023-02-22T05:30:56;7.05;;;3.75;;
29214;SDS011;16252;49.816;7.964;2023-02-22T05:33:22;6.97;;;3.83;;
29214;SDS011;16252;49.816;7.964;2023-02-22T05:35:47;5.97;;;3.50;;
29214;SDS011;16252;49.816;7.964;2023-02-22T05:38:12;5.88;;;4.00;;
29214;SDS011;16252;49.816;7.964;2023-02-22T05:40:39;8.00;;;4.55;;
29214;SDS011;16252;49.816;7.964;2023-02-22T05:43:05;5.15;;;4.03;;
29214;SDS011;16252;49.816;7.964;2023-02-22T05:45:31;8.13;;;4.40;;
29214;SDS011;16252;49.816;7.964;2023-02-22T05:47:56;8.85;;;3.90;;
29214;SDS011;16252;49.816;7.964;2023-02-22T05:50:21;5.03;;;3.58;;
29214;SDS011;16252;49.816;7.964;2023-02-22T05:52:48;4.38;;;3.53;;
29214;SDS011;16252;49.816;7.964;2023-02-22T05:55:15;5.75;;;3.60;;
29214;SDS011;16252;49.816;7.964;2023-02-22T05:57:42;7.22;;;3.80;;
29214;SDS011;16252;49.816;7.964;2023-02-22T06:00:08;7.78;;;3.67;;
29214;SDS011;16252;49.816;7.964;2023-02-22T06:02:34;4.75;;;3.45;;
29214;SDS011;16252;49.816;7.964;2023-02-22T06:04:59;7.72;;;4.18;;
29214;SDS011;16252;49.816;7.964;2023-02-22T06:07:24;4.05;;;3.30;;
29214;SDS011;16252;49.816;7.964;2023-02-22T06:09:51;4.75;;;3.08;;
29214;SDS011;16252;49.816;7.964;2023-02-22T06:12:17;5.38;;;3.67;;
29214;SDS011;16252;49.816;7.964;2023-02-22T06:14:42;4.78;;;3.30;;
29214;SDS011;16252;49.816;7.964;2023-02-22T06:17:11;5.50;;;3.83;;
29214;SDS011;16252;49.816;7.964;2023-02-22T06:19:38;6.55;;;4.10;;
29214;SDS011;16252;49.816;7.964;2023-02-22T06:22:04;5.90;;;4.07;;
29214;SDS011;16252;49.816;7.964;2023-02-22T06:24:30;6.28;;;3.95;;
29214;SDS011;16252;49.816;7.964;2023-02-22T06:26:56;5.90;;;3.35;;
29214;SDS011;16252;49.816;7.964;2023-02-22T06:29:25;5.78;;;3.95;;
29214;SDS011;16252;49.816;7.964;2023-02-22T06:31:52;6.22;;;3.50;;
29214;SDS011;16252;49.816;7.964;2023-02-22T06:34:17;4.72;;;3.35;;
29214;SDS011;16252;49.816;7.964;2023-02-22T06:36:43;3.97;;;3.55;;
29214;SDS011;16252;49.816;7.964;2023-02-22T06:39:09;5.22;;;4.10;;
29214;SDS011;16252;49.816;7.964;2023-02-22T06:41:39;6.25;;;3.97;;
29214;SDS011;16252;49.816;7.964;2023-02-22T06:44:06;7.85;;;3.50;;
29214;SDS011;16252;49.816;7.964;2023-02-22T06:46:32;5.22;;;3.33;;
29214;SDS011;16252;49.816;7.964;2023-02-22T06:48:57;6.18;;;3.60;;
29214;SDS011;16252;49.816;7.964;2023-02-22T06:51:25;7.90;;;4.30;;
29214;SDS011;16252;49.816;7.964;2023-02-22T06:53:51;6.05;;;3.85;;
29214;SDS011;16252;49.816;7.964;2023-02-22T06:56:17;6.57;;;4.43;;
29214;SDS011;16252;49.816;7.964;2023-02-22T06:58:43;10.15;;;4.07;;
29214;SDS011;16252;49.816;7.964;2023-02-22T07:01:09;7.60;;;4.50;;
29214;SDS011;16252;49.816;7.964;2023-02-22T07:03:34;5.80;;;4.10;;
29214;SDS011;16252;49.816;7.964;2023-02-22T07:06:00;6.75;;;4.20;;
29214;SDS011;16252;49.816;7.964;2023-02-22T07:08:26;7.03;;;4.05;;
29214;SDS011;16252;49.816;7.964;2023-02-22T07:10:52;7.53;;;4.28;;
29214;SDS011;16252;49.816;7.964;2023-02-22T07:13:17;6.80;;;4.25;;
29214;SDS011;16252;49.816;7.964;2023-02-22T07:15:43;8.35;;;4.00;;
29214;SDS011;16252;49.816;7.964;2023-02-22T07:18:08;8.77;;;4.72;;
29214;SDS011;16252;49.816;7.964;2023-02-22T07:20:34;7.57;;;4.63;;
29214;SDS011;16252;49.816;7.964;2023-02-22T07:23:00;6.75;;;4.20;;
29214;SDS011;16252;49.816;7.964;2023-02-22T07:25:25;6.32;;;4.13;;
29214;SDS011;16252;49.816;7.964;2023-02-22T07:27:51;6.75;;;4.32;;
29214;SDS011;16252;49.816;7.964;2023-02-22T07:30:18;6.93;;;4.55;;
29214;SDS011;16252;49.816;7.964;2023-02-22T07:32:49;8.00;;;4.35;;
29214;SDS011;16252;49.816;7.964;2023-02-22T07:35:22;9.57;;;4.88;;
29214;SDS011;16252;49.816;7.964;2023-02-22T07:37:52;7.50;;;4.22;;
29214;SDS011;16252;49.816;7.964;2023-02-22T07:40:18;8.98;;;4.55;;
29214;SDS011;16252;49.816;7.964;2023-02-22T07:45:32;11.02;;;5.53;;
29214;SDS011;16252;49.816;7.964;2023-02-22T07:47:59;11.45;;;6.30;;
29214;SDS011;16252;49.816;7.964;2023-02-22T07:50:27;10.70;;;6.10;;
29214;SDS011;16252;49.816;7.964;2023-02-22T07:52:54;13.00;;;7.40;;
29214;SDS011;16252;49.816;7.964;2023-02-22T07:55:23;11.35;;;7.20;;
29214;SDS011;16252;49.816;7.964;2023-02-22T07:57:50;12.68;;;8.05;;
29214;SDS011;16252;49.816;7.964;2023-02-22T08:00:23;11.70;;;7.00;;
29214;SDS011;16252;49.816;7.964;2023-02-22T08:02:48;10.70;;;7.22;;
29214;SDS011;16252;49.816;7.964;2023-02-22T08:05:14;12.55;;;7.05;;
29214;SDS011;16252;49.816;7.964;2023-02-22T08:07:39;12.50;;;7.93;;
29214;SDS011;16252;49.816;7.964;2023-02-22T08:10:06;14.25;;;8.32;;
29214;SDS011;16252;49.816;7.964;2023-02-22T08:12:32;14.18;;;9.43;;
29214;SDS011;16252;49.816;7.964;2023-02-22T08:14:58;15.05;;;9.10;;
29214;SDS011;16252;49.816;7.964;2023-02-22T08:17:24;14.65;;;8.60;;
29214;SDS011;16252;49.816;7.964;2023-02-22T08:19:49;13.95;;;8.98;;
29214;SDS011;16252;49.816;7.964;2023-02-22T08:22:15;30.10;;;9.55;;
29214;SDS011;16252;49.816;7.964;2023-02-22T08:24:40;18.58;;;9.23;;
29214;SDS011;16252;49.816;7.964;2023-02-22T08:27:05;16.67;;;8.18;;
29214;SDS011;16252;49.816;7.964;2023-02-22T08:29:30;14.48;;;8.20;;
29214;SDS011;16252;49.816;7.964;2023-02-22T08:31:57;13.75;;;7.75;;
29214;SDS011;16252;49.816;7.964;2023-02-22T08:34:23;16.17;;;8.18;;
29214;SDS011;16252;49.816;7.964;2023-02-22T08:36:48;13.07;;;7.22;;
29214;SDS011;16252;49.816;7.964;2023-02-22T08:39:14;10.80;;;7.20;;
29214;SDS011;16252;49.816;7.964;2023-02-22T08:41:39;11.95;;;6.38;;
29214;SDS011;16252;49.816;7.964;2023-02-22T08:44:04;10.15;;;6.47;;
29214;SDS011;16252;49.816;7.964;2023-02-22T08:46:29;10.98;;;7.07;;
29214;SDS011;16252;49.816;7.964;2023-02-22T08:48:55;10.13;;;6.53;;
29214;SDS011;16252;49.816;7.964;2023-02-22T08:51:20;9.73;;;6.18;;
29214;SDS011;16252;49.816;7.964;2023-02-22T08:53:45;11.02;;;7.65;;
29214;SDS011;16252;49.816;7.964;2023-02-22T08:56:11;11.73;;;7.25;;
29214;SDS011;16252;49.816;7.964;2023-02-22T08:58:36;11.00;;;6.57;;
29214;SDS011;16252;49.816;7.964;2023-02-22T09:01:01;12.23;;;6.93;;
29214;SDS011;16252;49.816;7.964;2023-02-22T09:03:26;14.57;;;7.78;;
29214;SDS011;16252;49.816;7.964;2023-02-22T09:05:52;15.05;;;7.57;;
29214;SDS011;16252;49.816;7.964;2023-02-22T09:08:18;14.57;;;8.23;;
29214;SDS011;16252;49.816;7.964;2023-02-22T09:10:43;16.90;;;9.00;;
29214;SDS011;16252;49.816;7.964;2023-02-22T09:13:09;19.90;;;9.88;;
29214;SDS011;16252;49.816;7.964;2023-02-22T09:15:35;21.45;;;9.93;;
29214;SDS011;16252;49.816;7.964;2023-02-22T09:18:02;16.25;;;8.65;;
29214;SDS011;16252;49.816;7.964;2023-02-22T09:20:27;17.65;;;9.82;;
29214;SDS011;16252;49.816;7.964;2023-02-22T09:22:53;19.08;;;9.88;;
29214;SDS011;16252;49.816;7.964;2023-02-22T09:25:19;22.83;;;11.38;;
29214;SDS011;16252;49.816;7.964;2023-02-22T09:27:49;22.38;;;10.80;;
29214;SDS011;16252;49.816;7.964;2023-02-22T09:30:23;22.95;;;12.27;;
29214;SDS011;16252;49.816;7.964;2023-02-22T09:32:56;25.17;;;11.80;;
29214;SDS011;16252;49.816;7.964;2023-02-22T09:35:23;19.92;;;10.77;;
29214;SDS011;16252;49.816;7.964;2023-02-22T09:37:51;23.95;;;11.48;;
29214;SDS011;16252;49.816;7.964;2023-02-22T09:40:17;23.42;;;12.35;;
29214;SDS011;16252;49.816;7.964;2023-02-22T09:42:52;21.23;;;11.20;;
29214;SDS011;16252;49.816;7.964;2023-02-22T09:45:38;21.40;;;10.98;;
29214;SDS011;16252;49.816;7.964;2023-02-22T09:48:12;20.83;;;10.27;;
29214;SDS011;16252;49.816;7.964;2023-02-22T09:50:40;24.35;;;11.77;;
29214;SDS011;16252;49.816;7.964;2023-02-22T09:58:53;23.50;;;12.88;;
29214;SDS011;16252;49.816;7.964;2023-02-22T10:04:22;24.58;;;13.48;;
29214;SDS011;16252;49.816;7.964;2023-02-22T10:06:51;23.08;;;12.43;;
29214;SDS011;16252;49.816;7.964;2023-02-22T10:09:30;21.10;;;10.98;;
29214;SDS011;16252;49.816;7.964;2023-02-22T10:12:04;20.40;;;11.77;;
29214;SDS011;16252;49.816;7.964;2023-02-22T10:14:43;20.38;;;12.43;;
29214;SDS011;16252;49.816;7.964;2023-02-22T10:20:21;21.05;;;13.02;;
29214;SDS011;16252;49.816;7.964;2023-02-22T10:25:27;20.95;;;11.25;;
29214;SDS011;16252;49.816;7.964;2023-02-22T10:28:18;17.02;;;11.27;;
29214;SDS011;16252;49.816;7.964;2023-02-22T10:33:23;16.90;;;10.68;;
29214;SDS011;16252;49.816;7.964;2023-02-22T10:35:54;19.35;;;10.70;;
29214;SDS011;16252;49.816;7.964;2023-02-22T10:38:30;18.13;;;11.13;;
29214;SDS011;16252;49.816;7.964;2023-02-22T10:43:38;21.48;;;11.85;;
29214;SDS011;16252;49.816;7.964;2023-02-22T10:46:06;17.23;;;10.57;;
29214;SDS011;16252;49.816;7.964;2023-02-22T10:48:34;15.60;;;9.90;;
29214;SDS011;16252;49.816;7.964;2023-02-22T10:51:03;15.93;;;10.23;;
29214;SDS011;16252;49.816;7.964;2023-02-22T10:53:32;19.92;;;10.93;;
29214;SDS011;16252;49.816;7.964;2023-02-22T10:59:02;15.15;;;9.65;;
29214;SDS011;16252;49.816;7.964;2023-02-22T11:06:41;16.75;;;10.10;;
29214;SDS011;16252;49.816;7.964;2023-02-22T11:11:46;14.35;;;9.48;;
29214;SDS011;16252;49.816;7.964;2023-02-22T11:14:26;13.18;;;9.57;;
29214;SDS011;16252;49.816;7.964;2023-02-22T11:16:53;13.02;;;8.98;;
29214;SDS011;16252;49.816;7.964;2023-02-22T11:19:21;14.05;;;9.43;;
29214;SDS011;16252;49.816;7.964;2023-02-22T11:21:50;14.55;;;9.38;;
29214;SDS011;16252;49.816;7.964;2023-02-22T11:24:19;17.20;;;10.07;;
29214;SDS011;16252;49.816;7.964;2023-02-22T11:26:49;15.02;;;10.05;;
29214;SDS011;16252;49.816;7.964;2023-02-22T11:31:43;13.75;;;9.38;;
29214;SDS011;16252;49.816;7.964;2023-02-22T11:39:46;11.38;;;7.82;;
29214;SDS011;16252;49.816;7.964;2023-02-22T11:42:30;15.20;;;9.00;;
29214;SDS011;16252;49.816;7.964;2023-02-22T11:47:54;19.10;;;11.02;;
29214;SDS011;16252;49.816;7.964;2023-02-22T11:59:02;16.17;;;10.23;;
29214;SDS011;16252;49.816;7.964;2023-02-22T12:01:47;13.50;;;9.75;;
29214;SDS011;16252;49.816;7.964;2023-02-22T12:07:27;15.07;;;9.52;;
29214;SDS011;16252;49.816;7.964;2023-02-22T12:10:07;17.25;;;11.32;;
29214;SDS011;16252;49.816;7.964;2023-02-22T12:12:56;16.67;;;10.30;;
29214;SDS011;16252;49.816;7.964;2023-02-22T12:18:03;16.90;;;10.35;;
29214;SDS011;16252;49.816;7.964;2023-02-22T12:20:33;14.52;;;9.10;;
29214;SDS011;16252;49.816;7.964;2023-02-22T12:23:22;14.40;;;9.70;;
29214;SDS011;16252;49.816;7.964;2023-02-22T12:28:55;17.52;;;9.98;;
29214;SDS011;16252;49.816;7.964;2023-02-22T12:36:44;15.27;;;9.65;;
29214;SDS011;16252;49.816;7.964;2023-02-22T12:40:03;16.60;;;10.43;;
29214;SDS011;16252;49.816;7.964;2023-02-22T12:42:12;16.92;;;9.57;;
29214;SDS011;16252;49.816;7.964;2023-02-22T12:44:41;14.80;;;10.32;;
29214;SDS011;16252;49.816;7.964;2023-02-22T12:47:13;16.23;;;9.82;;
29214;SDS011;16252;49.816;7.964;2023-02-22T12:49:54;16.75;;;9.60;;
29214;SDS011;16252;49.816;7.964;2023-02-22T12:52:31;14.23;;;9.48;;
29214;SDS011;16252;49.816;7.964;2023-02-22T12:55:12;17.02;;;10.48;;
29214;SDS011;16252;49.816;7.964;2023-02-22T12:57:46;18.35;;;10.23;;
29214;SDS011;16252;49.816;7.964;2023-02-22T13:06:03;16.23;;;11.23;;
29214;SDS011;16252;49.816;7.964;2023-02-22T13:08:34;18.50;;;12.40;;
29214;SDS011;16252;49.816;7.964;2023-02-22T13:13:58;16.73;;;11.50;;
29214;SDS011;16252;49.816;7.964;2023-02-22T13:16:50;15.13;;;10.40;;
29214;SDS011;16252;49.816;7.964;2023-02-22T13:19:37;16.15;;;10.75;;
29214;SDS011;16252;49.816;7.964;2023-02-22T13:22:15;16.00;;;10.88;;
29214;SDS011;16252;49.816;7.964;2023-02-22T13:25:03;19.80;;;10.90;;
29214;SDS011;16252;49.816;7.964;2023-02-22T13:27:39;18.77;;;11.07;;
29214;SDS011;16252;49.816;7.964;2023-02-22T13:30:17;18.38;;;11.20;;
29214;SDS011;16252;49.816;7.964;2023-02-22T13:38:21;17.63;;;11.35;;
29214;SDS011;16252;49.816;7.964;2023-02-22T13:41:22;19.60;;;12.18;;
29214;SDS011;16252;49.816;7.964;2023-02-22T13:49:24;22.55;;;11.40;;
29214;SDS011;16252;49.816;7.964;2023-02-22T13:52:13;19.92;;;12.13;;
29214;SDS011;16252;49.816;7.964;2023-02-22T13:54:50;19.88;;;12.43;;
29214;SDS011;16252;49.816;7.964;2023-02-22T13:57:21;18.90;;;11.57;;
29214;SDS011;16252;49.816;7.964;2023-02-22T14:08:07;19.58;;;12.25;;
29214;SDS011;16252;49.816;7.964;2023-02-22T14:10:59;19.35;;;11.80;;
29214;SDS011;16252;49.816;7.964;2023-02-22T14:18:24;18.98;;;11.40;;
29214;SDS011;16252;49.816;7.964;2023-02-22T14:21:10;21.77;;;12.13;;
29214;SDS011;16252;49.816;7.964;2023-02-22T14:23:40;20.27;;;11.82;;
29214;SDS011;16252;49.816;7.964;2023-02-22T14:34:09;18.20;;;12.05;;
29214;SDS011;16252;49.816;7.964;2023-02-22T14:36:37;20.13;;;12.90;;
29214;SDS011;16252;49.816;7.964;2023-02-22T14:39:14;20.80;;;13.15;;
29214;SDS011;16252;49.816;7.964;2023-02-22T14:41:45;21.17;;;12.85;;
29214;SDS011;16252;49.816;7.964;2023-02-22T14:44:19;19.52;;;12.57;;
29214;SDS011;16252;49.816;7.964;2023-02-22T14:46:48;23.90;;;13.75;;
29214;SDS011;16252;49.816;7.964;2023-02-22T14:49:17;19.23;;;12.52;;
29214;SDS011;16252;49.816;7.964;2023-02-22T14:51:50;20.17;;;12.52;;
29214;SDS011;16252;49.816;7.964;2023-02-22T14:54:26;19.77;;;12.70;;
29214;SDS011;16252;49.816;7.964;2023-02-22T14:59:36;26.03;;;13.57;;
29214;SDS011;16252;49.816;7.964;2023-02-22T15:02:14;19.60;;;12.43;;
29214;SDS011;16252;49.816;7.964;2023-02-22T15:04:49;20.23;;;13.00;;
29214;SDS011;16252;49.816;7.964;2023-02-22T15:07:33;21.40;;;12.85;;
29214;SDS011;16252;49.816;7.964;2023-02-22T15:10:10;26.02;;;14.10;;
29214;SDS011;16252;49.816;7.964;2023-02-22T15:12:50;19.95;;;12.30;;
29214;SDS011;16252;49.816;7.964;2023-02-22T15:15:32;20.48;;;12.63;;
29214;SDS011;16252;49.816;7.964;2023-02-22T15:17:59;18.95;;;11.95;;
29214;SDS011;16252;49.816;7.964;2023-02-22T15:20:25;21.10;;;13.40;;
29214;SDS011;16252;49.816;7.964;2023-02-22T15:22:57;22.88;;;12.95;;
29214;SDS011;16252;49.816;7.964;2023-02-22T15:25:24;25.95;;;12.50;;
29214;SDS011;16252;49.816;7.964;2023-02-22T15:27:52;26.67;;;13.60;;
29214;SDS011;16252;49.816;7.964;2023-02-22T15:30:25;19.42;;;12.57;;
29214;SDS011;16252;49.816;7.964;2023-02-22T15:32:51;24.95;;;14.40;;
29214;SDS011;16252;49.816;7.964;2023-02-22T15:35:18;25.73;;;13.43;;
29214;SDS011;16252;49.816;7.964;2023-02-22T15:37:57;23.45;;;13.93;;
29214;SDS011;16252;49.816;7.964;2023-02-22T15:40:33;24.35;;;14.13;;
29214;SDS011;16252;49.816;7.964;2023-02-22T15:43:00;24.48;;;14.00;;
29214;SDS011;16252;49.816;7.964;2023-02-22T15:45:27;22.23;;;13.45;;
29214;SDS011;16252;49.816;7.964;2023-02-22T15:47:54;23.73;;;14.50;;
29214;SDS011;16252;49.816;7.964;2023-02-22T15:50:27;21.15;;;12.30;;
29214;SDS011;16252;49.816;7.964;2023-02-22T15:55:26;20.98;;;12.55;;
29214;SDS011;16252;49.816;7.964;2023-02-22T15:57:54;22.88;;;13.68;;
29214;SDS011;16252;49.816;7.964;2023-02-22T16:00:26;23.35;;;14.35;;
29214;SDS011;16252;49.816;7.964;2023-02-22T16:03:03;22.73;;;13.70;;
29214;SDS011;16252;49.816;7.964;2023-02-22T16:05:39;21.20;;;13.02;;
29214;SDS011;16252;49.816;7.964;2023-02-22T16:08:12;22.83;;;14.32;;
29214;SDS011;16252;49.816;7.964;2023-02-22T16:10:43;24.00;;;14.38;;
29214;SDS011;16252;49.816;7.964;2023-02-22T16:13:24;20.65;;;12.90;;
29214;SDS011;16252;49.816;7.964;2023-02-22T16:18:28;28.83;;;16.88;;
29214;SDS011;16252;49.816;7.964;2023-02-22T16:21:02;24.13;;;14.80;;
29214;SDS011;16252;49.816;7.964;2023-02-22T16:24:13;17.75;;;11.60;;
29214;SDS011;16252;49.816;7.964;2023-02-22T16:26:28;26.35;;;12.93;;
29214;SDS011;16252;49.816;7.964;2023-02-22T16:29:00;24.05;;;14.73;;
29214;SDS011;16252;49.816;7.964;2023-02-22T16:31:34;20.05;;;13.75;;
29214;SDS011;16252;49.816;7.964;2023-02-22T16:34:04;22.38;;;14.52;;
29214;SDS011;16252;49.816;7.964;2023-02-22T16:36:38;21.60;;;14.25;;
29214;SDS011;16252;49.816;7.964;2023-02-22T16:39:06;22.50;;;12.90;;
29214;SDS011;16252;49.816;7.964;2023-02-22T16:41:32;19.63;;;11.93;;
29214;SDS011;16252;49.816;7.964;2023-02-22T16:43:58;21.05;;;14.32;;
29214;SDS011;16252;49.816;7.964;2023-02-22T16:46:24;23.08;;;13.48;;
29214;SDS011;16252;49.816;7.964;2023-02-22T16:48:49;21.98;;;14.65;;
29214;SDS011;16252;49.816;7.964;2023-02-22T16:51:19;25.98;;;15.48;;
29214;SDS011;16252;49.816;7.964;2023-02-22T16:53:47;25.73;;;14.27;;
29214;SDS011;16252;49.816;7.964;2023-02-22T16:56:13;26.35;;;15.90;;
29214;SDS011;16252;49.816;7.964;2023-02-22T16:58:42;27.67;;;15.45;;
29214;SDS011;16252;49.816;7.964;2023-02-22T17:01:09;30.15;;;17.67;;
29214;SDS011;16252;49.816;7.964;2023-02-22T17:03:36;28.42;;;17.50;;
29214;SDS011;16252;49.816;7.964;2023-02-22T17:06:02;29.77;;;17.85;;
29214;SDS011;16252;49.816;7.964;2023-02-22T17:08:27;30.70;;;15.57;;
29214;SDS011;16252;49.816;7.964;2023-02-22T17:10:53;29.60;;;16.38;;
29214;SDS011;16252;49.816;7.964;2023-02-22T17:13:21;25.25;;;16.05;;